createdAt,value
2022-11-03T00:02:10.877Z,91.60
2022-11-03T00:04:38.030Z,91.50
2022-11-03T00:07:05.135Z,91.50
2022-11-03T00:09:32.414Z,91.60
2022-11-03T00:11:59.398Z,91.50
2022-11-03T00:14:26.355Z,91.60
2022-11-03T00:16:53.650Z,91.60
2022-11-03T00:19:20.919Z,91.60
2022-11-03T00:21:48.226Z,91.60
2022-11-03T00:24:15.199Z,91.60
2022-11-03T00:26:42.096Z,91.60
2022-11-03T00:29:12.368Z,91.60
2022-11-03T00:31:42.775Z,91.50
2022-11-03T00:34:10.989Z,91.60
2022-11-03T00:36:41.990Z,91.60
2022-11-03T00:39:10.391Z,91.50
2022-11-03T00:41:38.517Z,91.60
2022-11-03T00:44:05.571Z,91.70
2022-11-03T00:46:35.961Z,91.70
2022-11-03T00:49:05.082Z,91.70
2022-11-03T00:51:34.537Z,91.70
2022-11-03T00:54:04.488Z,92.00
2022-11-03T00:56:34.127Z,91.80
2022-11-03T00:59:02.955Z,91.90
2022-11-03T01:01:40.562Z,92.00
2022-11-03T01:04:30.619Z,92.00
2022-11-03T01:06:59.780Z,92.10
2022-11-03T01:09:35.344Z,92.10
2022-11-03T01:12:06.688Z,92.20
2022-11-03T01:14:41.062Z,92.30
2022-11-03T01:17:11.978Z,92.30
2022-11-03T01:19:38.951Z,92.40
2022-11-03T01:22:10.607Z,92.40
2022-11-03T01:24:41.313Z,92.50
2022-11-03T01:27:10.328Z,92.60
2022-11-03T01:29:37.270Z,92.70
2022-11-03T01:32:04.456Z,92.80
2022-11-03T01:34:31.727Z,92.80
2022-11-03T01:36:58.849Z,92.80
2022-11-03T01:39:26.214Z,92.90
2022-11-03T01:41:53.518Z,92.90
2022-11-03T01:44:26.532Z,93.00
2022-11-03T01:47:12.369Z,93.10
2022-11-03T01:49:45.217Z,93.20
2022-11-03T01:52:25.782Z,93.30
2022-11-03T01:55:24.689Z,93.40
2022-11-03T01:58:05.839Z,93.40
2022-11-03T02:00:33.284Z,93.40
2022-11-03T02:03:01.336Z,93.50
2022-11-03T02:05:30.388Z,93.60
2022-11-03T02:08:02.286Z,93.60
2022-11-03T02:10:29.456Z,93.70
2022-11-03T02:12:57.113Z,93.70
2022-11-03T02:15:25.127Z,93.80
2022-11-03T02:17:55.108Z,93.80
2022-11-03T02:20:29.662Z,93.90
2022-11-03T02:23:12.289Z,93.90
2022-11-03T02:25:53.912Z,93.90
2022-11-03T02:28:32.930Z,93.90
2022-11-03T02:31:23.752Z,94.00
2022-11-03T02:34:12.101Z,94.00
2022-11-03T02:36:59.250Z,94.10
2022-11-03T02:39:42.188Z,94.10
2022-11-03T02:42:12.182Z,94.20
2022-11-03T02:44:41.513Z,94.30
2022-11-03T02:47:13.573Z,94.30
2022-11-03T02:52:44.082Z,94.40
2022-11-03T02:55:26.175Z,94.50
2022-11-03T02:58:12.971Z,94.60
2022-11-03T03:01:01.907Z,94.60
2022-11-03T03:03:42.731Z,94.70
2022-11-03T03:06:18.202Z,94.70
2022-11-03T03:08:51.580Z,94.70
2022-11-03T03:11:37.384Z,94.70
2022-11-03T03:14:21.393Z,94.70
2022-11-03T03:17:05.478Z,94.80
2022-11-03T03:19:49.456Z,94.80
2022-11-03T03:22:43.674Z,94.80
2022-11-03T03:25:34.381Z,94.70
2022-11-03T03:28:11.514Z,94.70
2022-11-03T03:30:42.375Z,94.80
2022-11-03T03:33:11.819Z,94.90
2022-11-03T03:35:44.436Z,94.90
2022-11-03T03:38:22.566Z,94.90
2022-11-03T03:40:55.553Z,94.90
2022-11-03T03:43:26.624Z,95.10
2022-11-03T03:45:58.630Z,95.10
2022-11-03T03:48:25.684Z,95.10
2022-11-03T03:50:53.959Z,95.10
2022-11-03T03:53:21.158Z,95.20
2022-11-03T03:55:52.186Z,95.20
2022-11-03T03:58:19.525Z,95.20
2022-11-03T04:00:49.499Z,95.20
2022-11-03T04:03:22.588Z,95.30
2022-11-03T04:05:51.053Z,95.20
2022-11-03T04:08:18.973Z,95.20
2022-11-03T04:11:05.060Z,95.20
2022-11-03T04:13:52.216Z,95.30
2022-11-03T04:16:38.022Z,95.10
2022-11-03T04:19:24.501Z,95.20
2022-11-03T04:22:10.813Z,95.20
2022-11-03T04:24:38.101Z,95.20
2022-11-03T04:27:38.358Z,95.30
2022-11-03T04:30:21.214Z,95.40
2022-11-03T04:32:51.200Z,95.40
2022-11-03T04:35:23.853Z,95.50
2022-11-03T04:38:17.221Z,95.50
2022-11-03T04:41:00.538Z,95.60
2022-11-03T04:43:36.156Z,95.60
2022-11-03T04:46:04.255Z,95.70
2022-11-03T04:48:33.053Z,95.80
2022-11-03T04:51:11.160Z,95.80
2022-11-03T04:53:38.992Z,95.90
2022-11-03T04:56:21.183Z,96.00
2022-11-03T04:58:48.919Z,96.00
2022-11-03T05:01:24.215Z,96.00
2022-11-03T05:03:55.546Z,96.10
2022-11-03T05:06:30.424Z,96.10
2022-11-03T05:09:13.572Z,96.20
2022-11-03T05:11:47.220Z,96.20
2022-11-03T05:14:20.009Z,96.20
2022-11-03T05:16:49.536Z,96.30
2022-11-03T05:19:43.698Z,96.30
2022-11-03T05:22:20.509Z,96.30
2022-11-03T05:24:47.729Z,96.20
2022-11-03T05:27:21.667Z,96.20
2022-11-03T05:29:53.959Z,96.20
2022-11-03T05:32:33.594Z,96.30
2022-11-03T05:35:01.356Z,96.10
2022-11-03T05:37:36.143Z,96.10
2022-11-03T05:40:26.088Z,96.10
2022-11-03T05:43:01.482Z,96.10
2022-11-03T05:45:35.850Z,96.20
2022-11-03T05:48:32.364Z,96.10
2022-11-03T05:51:02.646Z,96.00
2022-11-03T05:53:38.491Z,96.00
2022-11-03T05:56:07.206Z,96.00
2022-11-03T05:58:38.917Z,96.00
2022-11-03T06:01:18.809Z,96.10
2022-11-03T06:03:47.557Z,96.10
2022-11-03T06:06:32.718Z,96.00
2022-11-03T06:09:03.581Z,96.00
2022-11-03T06:11:36.623Z,96.10
2022-11-03T06:14:30.656Z,96.00
2022-11-03T06:17:06.011Z,96.00
2022-11-03T06:19:45.311Z,96.00
2022-11-03T06:22:30.929Z,96.00
2022-11-03T06:25:21.469Z,96.00
2022-11-03T06:27:48.369Z,96.00
2022-11-03T06:30:26.074Z,96.00
2022-11-03T06:32:58.083Z,96.00
2022-11-03T06:35:25.910Z,96.00
2022-11-03T06:37:53.801Z,96.00
2022-11-03T06:40:20.553Z,95.90
2022-11-03T06:42:47.431Z,95.90
2022-11-03T06:45:25.228Z,95.80
2022-11-03T06:47:55.388Z,95.80
2022-11-03T06:50:32.964Z,95.70
2022-11-03T06:53:04.523Z,95.70
2022-11-03T06:55:35.360Z,95.70
2022-11-03T06:58:28.473Z,95.60
2022-11-03T07:01:03.930Z,95.60
2022-11-03T07:03:37.407Z,95.60
2022-11-03T07:06:10.301Z,95.60
2022-11-03T07:09:04.900Z,95.50
2022-11-03T07:11:42.953Z,95.40
2022-11-03T07:14:17.748Z,95.30
2022-11-03T07:16:51.822Z,95.30
2022-11-03T07:19:30.876Z,95.20
2022-11-03T07:22:02.580Z,95.20
2022-11-03T07:24:42.022Z,95.20
2022-11-03T07:27:39.710Z,95.00
2022-11-03T07:30:34.738Z,95.00
2022-11-03T07:33:13.826Z,94.90
2022-11-03T07:36:13.722Z,94.80
2022-11-03T07:38:33.502Z,94.80
2022-11-03T07:41:00.897Z,94.60
2022-11-03T07:43:35.796Z,94.50
2022-11-03T07:46:04.936Z,94.40
2022-11-03T07:48:49.467Z,94.30
2022-11-03T07:51:29.946Z,94.20
2022-11-03T07:54:02.585Z,94.20
2022-11-03T07:56:40.815Z,94.10
2022-11-03T07:59:13.481Z,94.10
2022-11-03T08:01:47.332Z,94.10
2022-11-03T08:04:21.803Z,93.90
2022-11-03T08:06:49.204Z,93.70
2022-11-03T08:09:16.691Z,93.20
2022-11-03T08:11:44.069Z,92.90
2022-11-03T08:14:11.343Z,92.60
2022-11-03T08:16:39.084Z,92.60
2022-11-03T08:19:07.770Z,92.80
2022-11-03T08:21:35.624Z,92.80
2022-11-03T08:24:08.322Z,92.80
2022-11-03T08:26:35.489Z,93.00
2022-11-03T08:29:02.714Z,92.90
2022-11-03T08:31:29.608Z,93.00
2022-11-03T08:33:56.497Z,93.20
2022-11-03T08:36:24.077Z,93.20
2022-11-03T08:38:50.960Z,93.00
2022-11-03T08:41:17.882Z,93.00
2022-11-03T08:43:44.795Z,93.00
2022-11-03T08:46:17.767Z,92.70
2022-11-03T08:48:46.166Z,92.40
2022-11-03T08:51:14.999Z,92.20
2022-11-03T08:53:43.165Z,92.00
2022-11-03T08:56:13.171Z,92.00
2022-11-03T08:58:44.051Z,91.70
2022-11-03T09:01:12.327Z,91.60
2022-11-03T09:03:40.306Z,91.40
2022-11-03T09:06:08.575Z,91.40
2022-11-03T09:11:41.184Z,91.70
2022-11-03T09:14:09.030Z,91.80
2022-11-03T09:16:40.066Z,92.00
2022-11-03T09:19:10.698Z,91.90
2022-11-03T09:21:37.905Z,92.00
2022-11-03T09:24:08.719Z,91.90
2022-11-03T09:26:36.871Z,92.00
2022-11-03T09:31:53.122Z,92.00
2022-11-03T09:34:20.217Z,92.00
2022-11-03T09:36:52.957Z,92.10
2022-11-03T09:39:20.704Z,92.10
2022-11-03T09:41:58.140Z,92.10
2022-11-03T09:44:28.094Z,91.70
2022-11-03T09:46:58.208Z,91.20
2022-11-03T09:49:26.371Z,90.90
2022-11-03T09:51:54.137Z,90.70
2022-11-03T09:54:21.047Z,90.30
2022-11-03T09:56:48.163Z,90.00
2022-11-03T09:59:21.614Z,90.00
2022-11-03T10:01:53.558Z,89.80
2022-11-03T10:04:28.422Z,90.00
2022-11-03T10:06:57.420Z,90.10
2022-11-03T10:09:26.158Z,89.90
2022-11-03T10:11:55.176Z,89.80
2022-11-03T10:14:24.015Z,90.20
2022-11-03T10:16:57.770Z,90.30
2022-11-03T10:19:25.053Z,90.40
2022-11-03T10:21:52.516Z,90.10
2022-11-03T10:24:19.759Z,90.00
2022-11-03T10:26:53.231Z,90.60
2022-11-03T10:29:28.524Z,90.10
2022-11-03T10:31:58.657Z,90.20
2022-11-03T10:34:39.302Z,90.10
2022-11-03T10:37:24.875Z,90.10
2022-11-03T10:39:58.740Z,90.00
2022-11-03T10:42:36.000Z,89.70
2022-11-03T10:45:21.718Z,89.40
2022-11-03T10:48:02.427Z,89.20
2022-11-03T10:50:29.687Z,89.20
2022-11-03T10:53:05.208Z,88.40
2022-11-03T10:55:33.720Z,88.50
2022-11-03T10:58:03.606Z,88.10
2022-11-03T11:00:37.246Z,87.30
2022-11-03T11:03:15.068Z,86.90
2022-11-03T11:05:49.070Z,87.00
2022-11-03T11:08:25.553Z,86.40
2022-11-03T11:11:10.399Z,85.90
2022-11-03T11:14:07.456Z,85.40
2022-11-03T11:16:51.541Z,85.30
2022-11-03T11:19:20.471Z,84.90
2022-11-03T11:24:57.179Z,83.70
2022-11-03T11:36:40.129Z,80.50
2022-11-03T11:39:29.065Z,80.50
2022-11-03T11:45:04.115Z,79.10
2022-11-03T11:48:00.185Z,78.60
2022-11-03T11:50:31.642Z,79.20
2022-11-03T11:56:02.920Z,78.40
2022-11-03T12:01:37.866Z,77.30
2022-11-03T12:04:30.755Z,77.80
2022-11-03T12:06:59.221Z,77.50
2022-11-03T12:09:30.131Z,78.00
2022-11-03T12:14:41.452Z,79.50
2022-11-03T12:17:19.033Z,80.00
2022-11-03T12:19:49.902Z,80.30
2022-11-03T12:22:31.058Z,80.90
2022-11-03T12:25:04.155Z,81.30
2022-11-03T12:27:32.458Z,81.90
2022-11-03T12:30:05.416Z,82.20
2022-11-03T12:32:35.070Z,82.80
2022-11-03T12:35:05.728Z,83.00
2022-11-03T12:51:00.474Z,80.90
2022-11-03T12:53:42.641Z,80.40
2022-11-03T12:58:55.918Z,80.60
2022-11-03T13:01:34.602Z,81.00
2022-11-03T13:04:04.458Z,81.20
2022-11-03T13:06:35.266Z,81.50
2022-11-03T13:09:07.261Z,80.70
2022-11-03T13:12:02.384Z,80.90
2022-11-03T13:14:30.500Z,81.30
2022-11-03T13:19:39.475Z,82.50
2022-11-03T13:22:06.312Z,82.80
2022-11-03T13:29:56.389Z,83.90
2022-11-03T13:35:09.399Z,83.90
2022-11-03T13:37:39.896Z,84.30
2022-11-03T13:40:10.735Z,84.50
2022-11-03T13:42:43.179Z,84.60
2022-11-03T13:45:10.775Z,85.20
2022-11-03T13:48:15.464Z,84.90
2022-11-03T13:50:25.727Z,84.70
2022-11-03T13:52:52.863Z,84.80
2022-11-03T14:00:58.195Z,83.90
2022-11-03T14:06:14.061Z,84.20
2022-11-03T14:08:41.064Z,84.60
2022-11-03T14:11:27.457Z,84.70
2022-11-03T14:13:55.137Z,85.20
2022-11-03T14:16:22.486Z,85.20
2022-11-03T14:18:49.400Z,85.50
2022-11-03T14:21:17.712Z,85.80
2022-11-03T14:23:45.415Z,85.90
2022-11-03T14:28:53.916Z,86.00
2022-11-03T14:31:22.163Z,86.30
2022-11-03T14:33:49.732Z,86.70
2022-11-03T14:36:16.681Z,86.50
2022-11-03T14:38:49.826Z,86.70
2022-11-03T14:41:36.214Z,86.60
2022-11-03T14:44:05.990Z,86.90
2022-11-03T14:46:36.454Z,87.30
2022-11-03T14:49:04.627Z,87.60
2022-11-03T14:51:32.933Z,87.70
2022-11-03T14:54:01.514Z,87.80
2022-11-03T14:56:28.758Z,88.00
2022-11-03T14:58:58.477Z,88.70
2022-11-03T15:01:26.532Z,89.60
2022-11-03T15:03:55.604Z,90.10
2022-11-03T15:06:22.820Z,90.60
2022-11-03T15:08:56.117Z,91.00
2022-11-03T15:14:06.348Z,91.30
2022-11-03T15:16:41.035Z,91.70
2022-11-03T15:19:11.629Z,92.10
2022-11-03T15:27:09.234Z,94.10
2022-11-03T15:29:38.010Z,94.40
2022-11-03T15:32:05.701Z,94.80
2022-11-03T15:34:33.445Z,95.20
2022-11-03T15:37:01.202Z,95.40
2022-11-03T15:39:29.945Z,95.90
2022-11-03T15:41:57.922Z,96.10
2022-11-03T15:44:26.425Z,96.60
2022-11-03T15:46:53.459Z,96.90
2022-11-03T15:49:20.634Z,97.00
2022-11-03T15:51:48.641Z,97.40
2022-11-03T15:54:15.613Z,97.50
2022-11-03T15:56:43.339Z,97.90
2022-11-03T15:59:12.628Z,98.00
2022-11-03T16:01:41.633Z,98.20
2022-11-03T16:04:19.839Z,98.40
2022-11-03T16:09:37.144Z,98.70
2022-11-03T16:12:05.925Z,98.90
2022-11-03T16:14:39.570Z,99.00
2022-11-03T16:54:53.629Z,99.90
2022-11-03T17:00:19.670Z,99.90
2022-11-03T17:02:48.644Z,99.90
2022-11-03T17:11:09.905Z,99.90
2022-11-03T17:13:37.238Z,99.90
2022-11-03T17:16:15.260Z,99.90
2022-11-03T17:26:14.337Z,99.90
2022-11-03T17:38:47.940Z,99.90
2022-11-03T17:45:33.862Z,99.90
2022-11-03T17:48:08.140Z,99.90
2022-11-03T17:51:04.041Z,99.90
2022-11-03T17:53:55.723Z,99.90
2022-11-03T17:56:32.080Z,99.90
2022-11-03T17:59:12.595Z,99.90
2022-11-03T18:16:08.033Z,99.90
2022-11-03T18:18:41.731Z,99.90
2022-11-03T18:32:21.795Z,99.90
2022-11-03T18:34:50.310Z,99.90
2022-11-03T18:37:20.142Z,99.90
2022-11-03T18:51:16.036Z,99.90
2022-11-03T19:02:48.655Z,99.90
2022-11-03T19:05:25.162Z,99.90
2022-11-03T19:07:54.612Z,99.90
2022-11-03T19:10:23.338Z,99.90
2022-11-03T19:12:51.784Z,99.90
2022-11-03T19:15:27.771Z,99.90
2022-11-03T19:18:00.398Z,99.90
2022-11-03T19:20:27.507Z,99.90
2022-11-03T19:22:54.483Z,99.90
2022-11-03T19:25:21.525Z,99.90
2022-11-03T19:27:49.404Z,99.90
2022-11-03T19:30:19.413Z,99.90
2022-11-03T19:32:51.778Z,99.90
2022-11-03T19:35:45.352Z,99.90
2022-11-03T19:38:15.921Z,99.90
2022-11-03T19:41:03.337Z,99.90
2022-11-03T19:43:34.806Z,99.90
2022-11-03T19:46:02.926Z,99.90
2022-11-03T19:48:35.505Z,99.90
2022-11-03T19:51:06.362Z,99.90
2022-11-03T19:53:34.026Z,99.90
2022-11-03T19:56:01.761Z,99.90
2022-11-03T19:58:30.470Z,99.90
2022-11-03T20:01:02.827Z,99.90
2022-11-03T20:03:32.535Z,99.90
2022-11-03T20:06:03.263Z,99.90
2022-11-03T20:08:32.748Z,99.90
2022-11-03T20:10:59.648Z,99.90
2022-11-03T20:13:33.070Z,99.90
2022-11-03T20:16:01.786Z,99.90
2022-11-03T20:18:28.767Z,99.90
2022-11-03T20:20:56.203Z,99.90
2022-11-03T20:23:33.058Z,99.90
2022-11-03T20:26:01.514Z,99.90
2022-11-03T20:28:32.265Z,99.90
2022-11-03T20:31:03.749Z,99.90
2022-11-03T20:33:31.030Z,99.90
2022-11-03T20:35:59.133Z,99.90
2022-11-03T20:38:28.899Z,99.90
2022-11-03T20:41:01.663Z,99.90
2022-11-03T20:43:39.933Z,99.90
2022-11-03T20:52:34.197Z,99.90
2022-11-03T20:55:02.074Z,99.90
2022-11-03T20:57:29.171Z,99.90
2022-11-03T20:59:56.117Z,99.90
2022-11-03T21:02:25.063Z,99.90
2022-11-03T21:04:52.219Z,99.90
2022-11-03T21:07:19.187Z,99.90
2022-11-03T21:09:46.339Z,99.90
2022-11-03T21:12:14.714Z,99.90
2022-11-03T21:15:06.209Z,99.90
2022-11-03T21:18:00.547Z,99.90
2022-11-03T21:20:27.554Z,99.90
2022-11-03T21:22:54.745Z,99.90
2022-11-03T21:25:24.893Z,99.90
2022-11-03T21:27:54.688Z,99.90
2022-11-03T21:30:23.363Z,99.90
2022-11-03T21:32:51.914Z,99.90
2022-11-03T22:01:36.868Z,99.90
2022-11-03T22:04:04.244Z,99.90
2022-11-03T22:06:36.205Z,99.90
2022-11-03T22:09:03.632Z,99.90
2022-11-03T22:11:30.429Z,99.90
2022-11-03T22:14:00.492Z,99.90
2022-11-03T22:16:39.105Z,99.90
2022-11-03T22:19:51.512Z,99.90
2022-11-03T22:22:37.163Z,99.90
2022-11-03T22:25:24.240Z,99.90
2022-11-03T22:27:52.684Z,99.90
2022-11-03T22:30:39.421Z,99.90
2022-11-03T22:33:07.051Z,99.90
2022-11-03T22:35:53.826Z,99.90
2022-11-03T22:38:41.488Z,99.90
2022-11-03T22:41:27.911Z,99.90
2022-11-03T22:44:14.298Z,99.90
2022-11-03T22:46:41.450Z,99.90
2022-11-03T22:49:08.696Z,99.90
2022-11-03T22:51:35.795Z,99.90
2022-11-03T22:54:15.912Z,99.90
2022-11-03T22:56:47.041Z,99.90
2022-11-03T22:59:17.151Z,99.90
2022-11-03T23:01:44.346Z,99.80
2022-11-03T23:04:16.158Z,99.80
2022-11-03T23:06:45.512Z,99.90
2022-11-03T23:09:14.897Z,99.80
2022-11-03T23:11:41.874Z,99.80
2022-11-03T23:14:14.020Z,99.90
2022-11-03T23:16:48.137Z,99.90
2022-11-03T23:19:35.434Z,99.90
2022-11-03T23:22:03.394Z,99.90
2022-11-03T23:24:50.206Z,99.90
2022-11-03T23:27:20.836Z,99.90
2022-11-03T23:29:47.671Z,99.90
2022-11-03T23:32:14.901Z,99.90
2022-11-03T23:34:42.823Z,99.90
2022-11-03T23:37:10.574Z,99.90
2022-11-03T23:39:37.955Z,99.90
2022-11-03T23:42:05.344Z,99.90
2022-11-03T23:44:55.985Z,99.90
2022-11-03T23:47:41.660Z,99.90
2022-11-03T23:50:08.760Z,99.90
2022-11-03T23:52:36.081Z,99.90
2022-11-03T23:55:03.224Z,99.90
2022-11-03T23:57:48.484Z,99.90
